createdAt,value
2018-03-23T00:01:00.026Z,26.03
2018-03-23T00:03:29.901Z,24.37
2018-03-23T00:05:59.741Z,24.97
2018-03-23T00:08:29.617Z,22.83
2018-03-23T00:10:59.464Z,26.70
2018-03-23T00:13:29.449Z,26.60
2018-03-23T00:15:59.289Z,23.40
2018-03-23T00:18:29.161Z,23.40
2018-03-23T00:20:59.089Z,23.43
2018-03-23T00:23:29.209Z,21.33
2018-03-23T00:25:59.049Z,24.00
2018-03-23T00:28:28.921Z,22.83
2018-03-23T00:30:58.769Z,21.90
2018-03-23T00:33:28.647Z,22.53
2018-03-23T00:35:58.550Z,21.10
2018-03-23T00:38:28.416Z,20.37
2018-03-23T00:40:58.376Z,19.00
2018-03-23T00:43:28.233Z,21.77
2018-03-23T00:45:58.102Z,22.50
2018-03-23T00:48:27.937Z,23.57
2018-03-23T00:50:57.843Z,20.10
2018-03-23T00:53:27.677Z,22.20
2018-03-23T00:55:57.550Z,21.93
2018-03-23T00:58:27.401Z,18.40
2018-03-23T01:00:57.269Z,21.33
2018-03-23T01:03:27.097Z,21.30
2018-03-23T01:05:57.030Z,22.30
2018-03-23T01:08:26.878Z,20.17
2018-03-23T01:10:56.758Z,19.67
2018-03-23T01:13:26.586Z,24.10
2018-03-23T01:15:56.450Z,22.10
2018-03-23T01:18:26.293Z,21.63
2018-03-23T01:20:56.150Z,22.73
2018-03-23T01:23:25.991Z,23.23
2018-03-23T01:25:56.246Z,21.80
2018-03-23T01:28:26.154Z,22.30
2018-03-23T01:30:56.042Z,22.63
2018-03-23T01:33:25.982Z,22.73
2018-03-23T01:35:55.894Z,21.70
2018-03-23T01:38:25.746Z,20.90
2018-03-23T01:40:55.932Z,22.87
2018-03-23T01:43:25.784Z,21.63
2018-03-23T01:45:55.708Z,20.73
2018-03-23T01:48:25.543Z,24.13
2018-03-23T01:50:55.429Z,21.50
2018-03-23T01:53:31.069Z,22.10
2018-03-23T01:56:00.948Z,23.03
2018-03-23T01:58:30.770Z,23.43
2018-03-23T02:01:00.732Z,21.47
2018-03-23T02:03:30.686Z,21.43
2018-03-23T02:06:00.603Z,22.20
2018-03-23T02:08:30.509Z,23.53
2018-03-23T02:11:00.358Z,23.10
2018-03-23T02:13:30.225Z,24.13
2018-03-23T02:16:00.077Z,22.83
2018-03-23T02:18:30.274Z,24.70
2018-03-23T02:21:00.115Z,24.20
2018-03-23T02:23:30.024Z,21.13
2018-03-23T02:25:59.869Z,22.27
2018-03-23T02:28:29.749Z,23.80
2018-03-23T02:30:59.638Z,20.97
2018-03-23T02:33:29.505Z,23.33
2018-03-23T02:35:59.358Z,25.47
2018-03-23T02:38:29.254Z,28.07
2018-03-23T02:40:59.090Z,25.43
2018-03-23T02:43:28.998Z,27.70
2018-03-23T02:45:58.839Z,28.83
2018-03-23T02:48:28.727Z,26.47
2018-03-23T02:50:58.565Z,29.53
2018-03-23T02:53:28.437Z,31.30
2018-03-23T02:55:58.299Z,30.37
2018-03-23T02:58:28.167Z,29.53
2018-03-23T03:00:57.998Z,31.67
2018-03-23T03:03:27.904Z,33.50
2018-03-23T03:05:57.742Z,29.47
2018-03-23T03:08:27.609Z,29.97
2018-03-23T03:10:57.448Z,33.03
2018-03-23T03:13:27.346Z,29.17
2018-03-23T03:15:57.201Z,29.93
2018-03-23T03:18:27.065Z,26.03
2018-03-23T03:20:56.930Z,27.47
2018-03-23T03:23:26.801Z,26.17
2018-03-23T03:25:56.681Z,30.97
2018-03-23T03:28:26.837Z,27.20
2018-03-23T03:30:56.736Z,26.07
2018-03-23T03:33:26.569Z,27.27
2018-03-23T03:35:56.457Z,26.73
2018-03-23T03:38:26.288Z,36.13
2018-03-23T03:40:56.152Z,28.93
2018-03-23T03:43:26.042Z,26.50
2018-03-23T03:45:55.913Z,27.57
2018-03-23T03:48:25.753Z,28.30
2018-03-23T03:50:55.649Z,27.17
2018-03-23T03:53:25.505Z,27.97
2018-03-23T03:55:55.380Z,27.30
2018-03-23T03:58:25.233Z,27.13
2018-03-23T04:00:55.109Z,24.63
2018-03-23T04:03:24.938Z,27.50
2018-03-23T04:05:55.155Z,26.07
2018-03-23T04:08:25.001Z,30.20
2018-03-23T04:10:54.885Z,28.27
2018-03-23T04:13:24.721Z,32.93
2018-03-23T04:15:54.597Z,26.57
2018-03-23T04:18:24.517Z,26.17
2018-03-23T04:20:54.423Z,28.17
2018-03-23T04:23:24.245Z,31.17
2018-03-23T04:25:54.122Z,29.40
2018-03-23T04:28:23.966Z,30.40
2018-03-23T04:30:53.899Z,28.70
2018-03-23T04:33:23.713Z,29.57
2018-03-23T04:35:53.582Z,29.60
2018-03-23T04:38:23.483Z,25.77
2018-03-23T04:40:53.313Z,27.57
2018-03-23T04:43:23.183Z,28.80
2018-03-23T04:45:53.020Z,28.60
2018-03-23T04:48:22.985Z,26.63
2018-03-23T04:50:52.842Z,30.37
2018-03-23T04:53:22.734Z,29.27
2018-03-23T04:55:52.573Z,32.27
2018-03-23T04:58:22.486Z,30.80
2018-03-23T05:00:52.317Z,29.17
2018-03-23T05:03:22.190Z,26.33
2018-03-23T05:05:52.056Z,25.37
2018-03-23T05:08:22.170Z,26.90
2018-03-23T05:10:52.025Z,25.17
2018-03-23T05:13:21.922Z,26.67
2018-03-23T05:15:51.749Z,24.20
2018-03-23T05:18:21.621Z,29.40
2018-03-23T05:20:51.532Z,25.30
2018-03-23T05:23:21.757Z,22.70
2018-03-23T05:25:51.589Z,23.10
2018-03-23T05:28:21.455Z,22.63
2018-03-23T05:30:51.401Z,20.90
2018-03-23T05:33:21.290Z,26.13
2018-03-23T05:35:51.123Z,22.30
2018-03-23T05:38:20.986Z,23.87
2018-03-23T05:40:50.825Z,23.77
2018-03-23T05:43:20.712Z,25.00
2018-03-23T05:45:50.546Z,23.97
2018-03-23T05:48:20.440Z,24.13
2018-03-23T05:50:50.617Z,20.43
2018-03-23T05:53:20.501Z,22.57
2018-03-23T05:55:50.381Z,22.30
2018-03-23T05:58:20.238Z,23.00
2018-03-23T06:00:50.103Z,23.77
2018-03-23T06:03:19.942Z,22.30
2018-03-23T06:05:49.807Z,28.10
2018-03-23T06:08:19.653Z,23.73
2018-03-23T06:10:49.517Z,24.33
2018-03-23T06:13:19.383Z,23.37
2018-03-23T06:15:49.337Z,22.20
2018-03-23T06:18:19.177Z,22.00
2018-03-23T06:20:49.369Z,22.80
2018-03-23T06:23:19.217Z,19.60
2018-03-23T06:25:49.098Z,21.83
2018-03-23T06:28:18.944Z,21.97
2018-03-23T06:30:48.801Z,21.80
2018-03-23T06:33:18.966Z,21.83
2018-03-23T06:35:48.812Z,18.47
2018-03-23T06:38:18.663Z,17.00
2018-03-23T06:40:48.518Z,15.87
2018-03-23T06:43:18.373Z,17.40
2018-03-23T06:45:48.252Z,18.17
2018-03-23T06:48:18.090Z,20.87
2018-03-23T06:50:47.933Z,18.90
2018-03-23T06:53:18.053Z,17.77
2018-03-23T06:55:47.937Z,20.90
2018-03-23T06:58:17.778Z,18.40
2018-03-23T07:00:47.646Z,17.70
2018-03-23T07:03:17.470Z,18.73
2018-03-23T07:05:47.338Z,18.37
2018-03-23T07:08:17.251Z,18.83
2018-03-23T07:10:47.117Z,18.03
2018-03-23T07:13:16.945Z,18.07
2018-03-23T07:15:46.814Z,16.80
2018-03-23T07:18:16.654Z,17.00
2018-03-23T07:20:46.522Z,19.77
2018-03-23T07:23:16.389Z,18.30
2018-03-23T07:25:46.241Z,16.30
2018-03-23T07:28:16.126Z,17.30
2018-03-23T07:30:45.966Z,19.40
2018-03-23T07:33:15.852Z,19.40
2018-03-23T07:35:45.776Z,16.70
2018-03-23T07:38:16.489Z,19.77
2018-03-23T07:40:46.319Z,38.10
2018-03-23T07:43:16.216Z,17.17
2018-03-23T07:45:46.138Z,18.57
2018-03-23T07:48:16.053Z,20.60
2018-03-23T07:50:45.869Z,20.17
2018-03-23T07:53:15.741Z,20.93
2018-03-23T07:55:45.582Z,22.33
2018-03-23T07:58:15.709Z,21.63
2018-03-23T08:00:45.546Z,24.20
2018-03-23T08:03:15.399Z,20.73
2018-03-23T08:05:45.242Z,20.27
2018-03-23T08:08:15.109Z,20.93
2018-03-23T08:10:44.961Z,20.93
2018-03-23T08:13:14.888Z,18.77
2018-03-23T08:15:44.697Z,16.60
2018-03-23T08:18:14.553Z,18.60
2018-03-23T08:20:44.410Z,16.73
2018-03-23T08:23:14.282Z,20.97
2018-03-23T08:25:44.113Z,19.60
2018-03-23T08:28:13.985Z,17.87
2018-03-23T08:30:44.078Z,18.93
2018-03-23T08:33:13.962Z,16.60
2018-03-23T08:35:43.799Z,19.43
2018-03-23T08:38:13.691Z,15.77
2018-03-23T08:40:43.557Z,18.00
2018-03-23T08:43:13.397Z,17.27
2018-03-23T08:45:43.352Z,17.53
2018-03-23T08:48:13.200Z,17.67
2018-03-23T08:50:43.065Z,18.00
2018-03-23T08:53:12.996Z,22.73
2018-03-23T08:55:42.856Z,16.27
2018-03-23T08:58:12.733Z,18.73
2018-03-23T09:00:42.602Z,20.77
2018-03-23T09:03:12.442Z,19.37
2018-03-23T09:05:42.311Z,19.80
2018-03-23T09:08:12.141Z,21.77
2018-03-23T09:10:42.294Z,21.47
2018-03-23T09:13:12.133Z,20.90
2018-03-23T09:15:42.002Z,28.07
2018-03-23T09:18:11.831Z,24.20
2018-03-23T09:20:42.186Z,19.17
2018-03-23T09:23:12.010Z,21.20
2018-03-23T09:25:41.906Z,17.83
2018-03-23T09:28:15.661Z,17.33
2018-03-23T09:30:45.532Z,21.17
2018-03-23T09:33:15.350Z,17.30
2018-03-23T09:35:45.209Z,18.60
2018-03-23T09:38:15.059Z,20.90
2018-03-23T09:40:44.921Z,23.83
2018-03-23T09:43:14.777Z,22.20
2018-03-23T09:45:44.654Z,22.53
2018-03-23T09:48:14.503Z,22.73
2018-03-23T09:50:44.357Z,22.50
2018-03-23T09:53:14.195Z,20.70
2018-03-23T09:55:44.085Z,15.50
2018-03-23T09:58:13.925Z,17.40
2018-03-23T10:00:43.795Z,22.47
2018-03-23T10:03:13.682Z,20.70
2018-03-23T10:05:43.570Z,18.17
2018-03-23T10:08:13.138Z,19.37
2018-03-23T10:10:42.961Z,18.43
2018-03-23T10:13:13.144Z,21.77
2018-03-23T10:15:42.981Z,21.57
2018-03-23T10:18:12.850Z,19.40
2018-03-23T10:20:42.689Z,16.27
2018-03-23T10:23:12.565Z,18.77
2018-03-23T10:25:42.406Z,19.63
2018-03-23T10:28:12.286Z,22.07
2018-03-23T10:30:42.137Z,20.63
2018-03-23T10:33:12.123Z,17.40
2018-03-23T10:35:42.029Z,19.37
2018-03-23T10:38:11.945Z,20.13
2018-03-23T10:40:41.785Z,18.40
2018-03-23T10:43:11.665Z,16.77
2018-03-23T10:45:41.562Z,18.20
2018-03-23T10:48:11.449Z,22.63
2018-03-23T10:50:41.304Z,20.80
2018-03-23T10:53:11.174Z,22.23
2018-03-23T10:55:41.115Z,23.00
2018-03-23T10:58:10.997Z,22.53
2018-03-23T11:00:46.530Z,23.47
2018-03-23T11:03:16.393Z,26.90
2018-03-23T11:05:46.233Z,22.30
2018-03-23T11:08:16.117Z,25.80
2018-03-23T11:10:45.964Z,23.83
2018-03-23T11:13:15.813Z,21.57
2018-03-23T11:15:45.661Z,25.00
2018-03-23T11:18:15.539Z,23.47
2018-03-23T11:20:45.393Z,24.83
2018-03-23T11:23:15.277Z,22.33
2018-03-23T11:25:45.201Z,19.27
2018-03-23T11:28:15.105Z,17.80
2018-03-23T11:30:44.968Z,20.53
2018-03-23T11:33:14.902Z,17.77
2018-03-23T11:35:44.780Z,18.77
2018-03-23T11:38:14.629Z,18.77
2018-03-23T11:40:44.515Z,19.97
2018-03-23T11:43:14.350Z,18.37
2018-03-23T11:45:44.217Z,21.33
2018-03-23T11:48:14.142Z,19.57
2018-03-23T11:50:44.058Z,21.80
2018-03-23T11:53:13.846Z,22.80
2018-03-23T11:55:43.729Z,26.47
2018-03-23T11:58:13.569Z,21.33
2018-03-23T12:00:43.444Z,20.57
2018-03-23T12:03:13.287Z,20.23
2018-03-23T12:05:43.162Z,21.07
2018-03-23T12:08:13.010Z,18.50
2018-03-23T12:10:42.861Z,17.97
2018-03-23T12:13:12.721Z,18.87
2018-03-23T12:15:42.646Z,27.17
2018-03-23T12:20:48.944Z,26.33
2018-03-23T12:23:18.801Z,19.93
2018-03-23T12:25:48.702Z,19.97
2018-03-23T12:28:18.826Z,17.93
2018-03-23T12:30:48.725Z,19.27
2018-03-23T12:33:18.844Z,17.53
2018-03-23T12:35:48.771Z,18.13
2018-03-23T12:38:18.657Z,18.67
2018-03-23T12:40:48.528Z,17.93
2018-03-23T12:43:18.391Z,17.73
2018-03-23T12:45:48.246Z,17.60
2018-03-23T12:48:18.130Z,20.10
2018-03-23T12:50:47.985Z,15.03
2018-03-23T12:53:18.166Z,15.93
2018-03-23T12:55:48.033Z,16.50
2018-03-23T12:58:17.954Z,17.50
2018-03-23T13:00:47.781Z,19.20
2018-03-23T13:03:17.669Z,15.83
2018-03-23T13:05:47.524Z,18.60
2018-03-23T13:08:17.412Z,15.97
2018-03-23T13:10:47.264Z,15.83
2018-03-23T13:13:17.142Z,15.57
2018-03-23T13:15:46.965Z,20.23
2018-03-23T13:18:16.821Z,16.10
2018-03-23T13:20:46.650Z,17.50
2018-03-23T13:23:16.497Z,17.90
2018-03-23T13:25:46.353Z,17.30
2018-03-23T13:28:16.206Z,16.43
2018-03-23T13:30:46.111Z,17.97
2018-03-23T13:33:15.977Z,20.97
2018-03-23T13:35:45.881Z,20.37
2018-03-23T13:38:15.773Z,22.97
2018-03-23T13:40:45.618Z,17.30
2018-03-23T13:43:15.475Z,21.07
2018-03-23T13:45:45.342Z,23.97
2018-03-23T13:48:15.232Z,19.20
2018-03-23T13:50:45.062Z,18.03
2018-03-23T13:53:14.933Z,22.63
2018-03-23T13:55:44.817Z,21.97
2018-03-23T13:58:14.673Z,20.60
2018-03-23T14:00:50.269Z,20.60
2018-03-23T14:03:20.138Z,19.80
2018-03-23T14:05:50.350Z,19.77
2018-03-23T14:08:20.293Z,23.97
2018-03-23T14:10:50.181Z,20.50
2018-03-23T14:13:20.058Z,20.53
2018-03-23T14:15:49.926Z,20.23
2018-03-23T14:18:19.757Z,20.80
2018-03-23T14:20:49.966Z,18.60
2018-03-23T14:23:19.829Z,23.57
2018-03-23T14:25:49.854Z,20.73
2018-03-23T14:28:20.445Z,20.77
2018-03-23T14:30:50.314Z,22.07
2018-03-23T14:33:20.135Z,46.27
2018-03-23T14:35:50.011Z,40.57
2018-03-23T14:38:19.873Z,28.10
2018-03-23T14:40:49.766Z,21.07
2018-03-23T14:43:19.613Z,20.27
2018-03-23T14:45:49.553Z,20.20
2018-03-23T14:48:19.430Z,19.30
2018-03-23T14:50:49.342Z,21.03
2018-03-23T14:53:19.184Z,25.50
2018-03-23T14:55:49.033Z,25.23
2018-03-23T14:58:19.071Z,24.67
2018-03-23T15:00:48.958Z,24.93
2018-03-23T15:03:18.794Z,24.47
2018-03-23T15:05:48.671Z,28.23
2018-03-23T15:08:18.510Z,30.83
2018-03-23T15:10:48.467Z,27.53
2018-03-23T15:13:18.282Z,32.30
2018-03-23T15:15:48.146Z,32.23
2018-03-23T15:18:18.065Z,32.50
2018-03-23T15:20:47.889Z,35.37
2018-03-23T15:23:17.757Z,31.43
2018-03-23T15:25:47.600Z,37.93
2018-03-23T15:28:17.480Z,35.37
2018-03-23T15:30:47.362Z,31.40
2018-03-23T15:33:17.266Z,35.50
2018-03-23T15:35:47.110Z,34.40
2018-03-23T15:38:16.995Z,31.87
2018-03-23T15:40:46.821Z,26.70
2018-03-23T15:43:16.677Z,29.13
2018-03-23T15:45:46.497Z,29.07
2018-03-23T15:48:16.365Z,28.03
2018-03-23T15:50:46.213Z,29.57
2018-03-23T15:53:16.071Z,27.87
2018-03-23T15:55:45.894Z,25.03
2018-03-23T15:58:16.074Z,25.87
2018-03-23T16:00:45.897Z,26.10
2018-03-23T16:03:15.799Z,25.27
2018-03-23T16:05:45.734Z,25.73
2018-03-23T16:08:15.601Z,26.83
2018-03-23T16:10:45.778Z,26.13
2018-03-23T16:13:15.726Z,26.57
2018-03-23T16:15:45.603Z,26.93
2018-03-23T16:18:15.521Z,25.40
2018-03-23T16:20:45.376Z,28.47
2018-03-23T16:23:15.273Z,28.90
2018-03-23T16:25:45.108Z,30.70
2018-03-23T16:28:15.795Z,28.20
2018-03-23T16:30:45.665Z,26.83
2018-03-23T16:33:15.922Z,26.77
2018-03-23T16:35:45.791Z,26.60
2018-03-23T16:38:15.621Z,24.43
2018-03-23T16:40:45.474Z,29.00
2018-03-23T16:43:15.326Z,27.30
2018-03-23T16:45:45.224Z,25.80
2018-03-23T16:48:15.109Z,27.50
2018-03-23T16:50:44.994Z,30.40
2018-03-23T16:53:14.925Z,28.33
2018-03-23T16:55:44.801Z,26.73
2018-03-23T16:58:14.630Z,27.07
2018-03-23T17:00:44.486Z,27.30
2018-03-23T17:03:14.326Z,22.43
2018-03-23T17:05:44.183Z,28.30
2018-03-23T17:08:14.014Z,22.63
2018-03-23T17:10:43.913Z,24.37
2018-03-23T17:13:13.762Z,30.70
2018-03-23T17:15:43.746Z,29.00
2018-03-23T17:18:13.593Z,26.80
2018-03-23T17:20:43.451Z,25.27
2018-03-23T17:23:13.289Z,26.30
2018-03-23T17:25:43.167Z,22.67
2018-03-23T17:28:13.029Z,21.80
2018-03-23T17:30:42.905Z,21.00
2018-03-23T17:33:12.729Z,25.67
2018-03-23T17:35:42.594Z,25.13
2018-03-23T17:38:12.430Z,22.70
2018-03-23T17:40:42.302Z,20.03
2018-03-23T17:43:12.173Z,17.67
2018-03-23T17:45:42.096Z,21.33
2018-03-23T17:48:11.949Z,18.93
2018-03-23T17:50:41.841Z,22.73
2018-03-23T17:53:11.707Z,22.07
2018-03-23T17:55:41.536Z,19.73
2018-03-23T17:58:11.402Z,21.37
2018-03-23T18:00:41.237Z,17.03
2018-03-23T18:03:11.096Z,18.80
2018-03-23T18:05:40.930Z,19.20
2018-03-23T18:08:10.823Z,19.33
2018-03-23T18:10:40.686Z,18.77
2018-03-23T18:13:10.546Z,18.23
2018-03-23T18:15:40.417Z,20.97
2018-03-23T18:18:10.359Z,19.30
2018-03-23T18:20:40.221Z,18.90
2018-03-23T18:23:10.102Z,17.83
2018-03-23T18:25:39.947Z,17.47
2018-03-23T18:28:08.215Z,19.20
2018-03-23T18:30:36.530Z,18.40
2018-03-23T18:33:05.635Z,18.63
2018-03-23T18:35:34.738Z,23.70
2018-03-23T18:38:03.079Z,23.90
2018-03-23T18:40:32.170Z,25.77
2018-03-23T18:43:01.274Z,24.23
2018-03-23T18:45:29.596Z,23.10
2018-03-23T18:47:57.943Z,26.10
2018-03-23T18:50:27.017Z,22.50
2018-03-23T18:52:55.383Z,26.60
2018-03-23T18:55:23.707Z,22.43
2018-03-23T18:57:52.774Z,22.17
2018-03-23T19:00:21.126Z,23.37
2018-03-23T19:02:49.501Z,21.17
2018-03-23T19:05:17.843Z,22.60
2018-03-23T19:07:46.398Z,20.40
2018-03-23T19:10:14.759Z,18.00
2018-03-23T19:12:43.074Z,18.57
2018-03-23T19:15:11.445Z,22.47
2018-03-23T19:17:40.534Z,26.37
2018-03-23T19:20:08.887Z,22.73
2018-03-23T19:22:37.677Z,22.80
2018-03-23T19:25:06.286Z,24.20
2018-03-23T19:27:35.354Z,23.87
2018-03-23T19:30:03.969Z,19.97
2018-03-23T19:32:32.289Z,20.27
2018-03-23T19:35:00.920Z,19.50
2018-03-23T19:40:27.774Z,18.33
2018-03-23T19:42:57.464Z,15.13
2018-03-23T19:48:25.073Z,17.90
2018-03-23T19:50:54.163Z,17.00
2018-03-23T19:53:23.733Z,16.60
2018-03-23T19:55:52.308Z,14.87
2018-03-23T19:58:21.194Z,16.00
2018-03-23T20:00:49.562Z,18.87
2018-03-23T20:09:13.198Z,19.73
2018-03-23T20:11:45.970Z,20.23
2018-03-23T20:17:12.959Z,21.00
2018-03-23T20:19:56.010Z,19.73
2018-03-23T20:22:24.382Z,27.53
2018-03-23T20:24:52.722Z,27.67
2018-03-23T20:40:43.914Z,19.33
2018-03-23T20:43:13.136Z,20.43
2018-03-23T20:45:42.025Z,21.13
2018-03-23T20:51:04.386Z,25.23
2018-03-23T20:53:32.810Z,28.00
2018-03-23T20:56:01.109Z,23.83
2018-03-23T20:58:29.442Z,24.93
2018-03-23T21:03:54.558Z,23.17
2018-03-23T21:06:23.174Z,24.37
2018-03-23T21:08:51.518Z,22.90
2018-03-23T21:11:19.831Z,26.07
2018-03-23T21:13:49.069Z,21.10
2018-03-23T21:16:17.523Z,25.47
2018-03-23T21:18:45.846Z,21.70
2018-03-23T21:21:14.161Z,20.23
2018-03-23T21:23:42.498Z,20.03
2018-03-23T21:26:11.570Z,24.30
2018-03-23T21:28:39.909Z,23.00
2018-03-23T21:31:08.214Z,20.97
2018-03-23T21:33:36.541Z,21.27
2018-03-23T21:36:04.902Z,21.00
2018-03-23T21:38:33.264Z,19.63
2018-03-23T21:41:02.367Z,21.77
2018-03-23T21:43:30.759Z,24.30
2018-03-23T21:45:59.082Z,20.77
2018-03-23T21:48:27.430Z,22.33
2018-03-23T21:50:55.734Z,22.57
2018-03-23T21:53:24.055Z,23.77
2018-03-23T21:55:53.054Z,21.87
2018-03-23T21:58:22.163Z,21.30
2018-03-23T22:00:50.486Z,20.33
2018-03-23T22:03:18.782Z,22.13
2018-03-23T22:05:47.152Z,23.07
2018-03-23T22:08:16.961Z,21.50
2018-03-23T22:10:46.075Z,22.20
2018-03-23T22:13:14.369Z,24.20
2018-03-23T22:15:42.718Z,25.53
2018-03-23T22:18:11.106Z,22.90
2018-03-23T22:20:40.199Z,23.60
2018-03-23T22:23:09.298Z,24.87
2018-03-23T22:25:39.077Z,22.27
2018-03-23T22:28:07.398Z,21.93
2018-03-23T22:30:35.730Z,21.77
2018-03-23T22:33:04.022Z,24.30
2018-03-23T22:35:33.138Z,25.23
2018-03-23T22:38:01.602Z,22.80
2018-03-23T22:40:31.326Z,24.97
2018-03-23T22:42:59.694Z,26.10
2018-03-23T22:45:28.082Z,25.67
2018-03-23T22:47:56.372Z,26.87
2018-03-23T22:50:24.738Z,25.03
2018-03-23T22:52:53.067Z,28.70
2018-03-23T22:55:21.383Z,22.90
2018-03-23T22:57:50.495Z,25.97
2018-03-23T23:00:19.065Z,29.07
2018-03-23T23:02:48.154Z,29.87
2018-03-23T23:05:17.226Z,23.70
2018-03-23T23:07:46.360Z,24.47
2018-03-23T23:10:14.675Z,23.40
2018-03-23T23:12:43.070Z,24.83
2018-03-23T23:15:12.888Z,28.97
2018-03-23T23:17:41.238Z,26.13
2018-03-23T23:20:09.567Z,23.87
2018-03-23T23:22:37.915Z,26.07
2018-03-23T23:25:07.118Z,25.63
2018-03-23T23:27:35.520Z,24.00
2018-03-23T23:30:03.838Z,27.50
2018-03-23T23:32:32.199Z,28.73
2018-03-23T23:35:00.550Z,24.70
2018-03-23T23:37:29.137Z,24.70
2018-03-23T23:39:57.462Z,27.83
2018-03-23T23:42:25.797Z,24.53
2018-03-23T23:44:54.110Z,25.90
2018-03-23T23:47:22.466Z,26.50
2018-03-23T23:49:50.830Z,27.30
2018-03-23T23:52:19.198Z,27.07
2018-03-23T23:54:48.292Z,30.33
2018-03-23T23:57:16.605Z,27.37
2018-03-23T23:59:44.930Z,28.30
